sensor_id;sensor_type;location;lat;lon;timestamp;P1;durP1;ratioP1;P2;durP2;ratioP2
39994;SDS011;25686;51.908;10.418;2023-09-19T00:00:56;0.85;;;0.70;;
39994;SDS011;25686;51.908;10.418;2023-09-19T00:02:58;1.25;;;0.77;;
39994;SDS011;25686;51.908;10.418;2023-09-19T00:04:59;2.92;;;0.80;;
39994;SDS011;25686;51.908;10.418;2023-09-19T00:07:05;0.70;;;0.70;;
39994;SDS011;25686;51.908;10.418;2023-09-19T00:09:06;2.50;;;0.80;;
39994;SDS011;25686;51.908;10.418;2023-09-19T00:11:10;1.38;;;0.90;;
39994;SDS011;25686;51.908;10.418;2023-09-19T00:13:12;1.65;;;1.10;;
39994;SDS011;25686;51.908;10.418;2023-09-19T00:15:13;1.23;;;1.00;;
39994;SDS011;25686;51.908;10.418;2023-09-19T00:17:17;2.45;;;1.02;;
39994;SDS011;25686;51.908;10.418;2023-09-19T00:19:18;1.67;;;1.00;;
39994;SDS011;25686;51.908;10.418;2023-09-19T00:21:19;3.45;;;1.10;;
39994;SDS011;25686;51.908;10.418;2023-09-19T00:23:20;3.70;;;1.10;;
39994;SDS011;25686;51.908;10.418;2023-09-19T00:25:21;1.50;;;0.90;;
39994;SDS011;25686;51.908;10.418;2023-09-19T00:27:22;2.53;;;1.10;;
39994;SDS011;25686;51.908;10.418;2023-09-19T00:29:23;2.53;;;1.05;;
39994;SDS011;25686;51.908;10.418;2023-09-19T00:31:24;4.57;;;1.17;;
39994;SDS011;25686;51.908;10.418;2023-09-19T00:33:25;3.42;;;1.30;;
39994;SDS011;25686;51.908;10.418;2023-09-19T00:35:26;1.85;;;0.98;;
39994;SDS011;25686;51.908;10.418;2023-09-19T00:37:27;2.55;;;0.90;;
39994;SDS011;25686;51.908;10.418;2023-09-19T00:39:28;2.97;;;1.17;;
39994;SDS011;25686;51.908;10.418;2023-09-19T00:41:31;1.92;;;0.90;;
39994;SDS011;25686;51.908;10.418;2023-09-19T00:43:35;3.33;;;1.00;;
39994;SDS011;25686;51.908;10.418;2023-09-19T00:45:36;1.15;;;0.88;;
39994;SDS011;25686;51.908;10.418;2023-09-19T00:47:45;6.40;;;1.65;;
39994;SDS011;25686;51.908;10.418;2023-09-19T00:49:48;2.40;;;1.00;;
39994;SDS011;25686;51.908;10.418;2023-09-19T00:51:49;2.88;;;1.02;;
39994;SDS011;25686;51.908;10.418;2023-09-19T00:53:52;1.58;;;1.10;;
39994;SDS011;25686;51.908;10.418;2023-09-19T00:55:53;7.28;;;1.23;;
39994;SDS011;25686;51.908;10.418;2023-09-19T00:57:56;3.78;;;1.17;;
39994;SDS011;25686;51.908;10.418;2023-09-19T00:59:57;2.95;;;1.20;;
39994;SDS011;25686;51.908;10.418;2023-09-19T01:01:58;2.00;;;0.85;;
39994;SDS011;25686;51.908;10.418;2023-09-19T01:04:00;2.40;;;1.00;;
39994;SDS011;25686;51.908;10.418;2023-09-19T01:06:01;4.82;;;1.10;;
39994;SDS011;25686;51.908;10.418;2023-09-19T01:08:02;2.28;;;1.20;;
39994;SDS011;25686;51.908;10.418;2023-09-19T01:10:03;1.40;;;1.20;;
39994;SDS011;25686;51.908;10.418;2023-09-19T01:12:11;4.60;;;1.25;;
39994;SDS011;25686;51.908;10.418;2023-09-19T01:14:19;3.13;;;1.40;;
39994;SDS011;25686;51.908;10.418;2023-09-19T01:23:00;4.28;;;1.20;;
39994;SDS011;25686;51.908;10.418;2023-09-19T01:25:07;2.90;;;1.35;;
39994;SDS011;25686;51.908;10.418;2023-09-19T01:27:25;1.23;;;0.93;;
39994;SDS011;25686;51.908;10.418;2023-09-19T01:29:47;1.77;;;1.15;;
39994;SDS011;25686;51.908;10.418;2023-09-19T01:31:49;2.75;;;1.38;;
39994;SDS011;25686;51.908;10.418;2023-09-19T01:36:01;4.70;;;1.33;;
39994;SDS011;25686;51.908;10.418;2023-09-19T01:38:03;5.10;;;1.52;;
39994;SDS011;25686;51.908;10.418;2023-09-19T01:40:05;6.15;;;1.60;;
39994;SDS011;25686;51.908;10.418;2023-09-19T01:42:37;4.13;;;1.33;;
39994;SDS011;25686;51.908;10.418;2023-09-19T01:44:44;3.40;;;1.50;;
39994;SDS011;25686;51.908;10.418;2023-09-19T01:46:50;4.90;;;1.52;;
39994;SDS011;25686;51.908;10.418;2023-09-19T01:48:58;4.72;;;1.42;;
39994;SDS011;25686;51.908;10.418;2023-09-19T01:51:06;4.60;;;1.60;;
39994;SDS011;25686;51.908;10.418;2023-09-19T01:53:14;5.20;;;2.33;;
39994;SDS011;25686;51.908;10.418;2023-09-19T01:55:16;6.18;;;1.98;;
39994;SDS011;25686;51.908;10.418;2023-09-19T01:57:22;4.50;;;1.80;;
39994;SDS011;25686;51.908;10.418;2023-09-19T01:59:30;3.88;;;1.80;;
39994;SDS011;25686;51.908;10.418;2023-09-19T02:01:33;6.90;;;2.22;;
39994;SDS011;25686;51.908;10.418;2023-09-19T02:03:37;2.80;;;2.10;;
39994;SDS011;25686;51.908;10.418;2023-09-19T02:05:39;8.30;;;2.40;;
39994;SDS011;25686;51.908;10.418;2023-09-19T02:07:40;3.45;;;2.13;;
39994;SDS011;25686;51.908;10.418;2023-09-19T02:09:41;3.67;;;2.13;;
39994;SDS011;25686;51.908;10.418;2023-09-19T02:11:42;6.13;;;2.40;;
39994;SDS011;25686;51.908;10.418;2023-09-19T02:13:43;3.92;;;2.03;;
39994;SDS011;25686;51.908;10.418;2023-09-19T02:15:44;3.53;;;2.15;;
39994;SDS011;25686;51.908;10.418;2023-09-19T02:17:46;9.25;;;2.22;;
39994;SDS011;25686;51.908;10.418;2023-09-19T02:19:47;3.25;;;2.33;;
39994;SDS011;25686;51.908;10.418;2023-09-19T02:21:48;4.78;;;2.42;;
39994;SDS011;25686;51.908;10.418;2023-09-19T02:23:49;3.03;;;2.13;;
39994;SDS011;25686;51.908;10.418;2023-09-19T02:25:54;2.85;;;2.10;;
39994;SDS011;25686;51.908;10.418;2023-09-19T02:27:58;4.40;;;2.47;;
39994;SDS011;25686;51.908;10.418;2023-09-19T02:29:59;6.00;;;2.05;;
39994;SDS011;25686;51.908;10.418;2023-09-19T02:32:03;6.45;;;2.53;;
39994;SDS011;25686;51.908;10.418;2023-09-19T02:34:06;3.78;;;2.60;;
39994;SDS011;25686;51.908;10.418;2023-09-19T02:36:08;6.38;;;2.60;;
39994;SDS011;25686;51.908;10.418;2023-09-19T02:38:09;3.33;;;2.28;;
39994;SDS011;25686;51.908;10.418;2023-09-19T02:40:12;2.38;;;2.00;;
39994;SDS011;25686;51.908;10.418;2023-09-19T02:42:19;3.42;;;2.28;;
39994;SDS011;25686;51.908;10.418;2023-09-19T02:44:20;5.68;;;2.50;;
39994;SDS011;25686;51.908;10.418;2023-09-19T02:46:22;2.35;;;2.08;;
39994;SDS011;25686;51.908;10.418;2023-09-19T02:48:23;5.55;;;2.63;;
39994;SDS011;25686;51.908;10.418;2023-09-19T02:50:25;3.88;;;2.58;;
39994;SDS011;25686;51.908;10.418;2023-09-19T02:52:26;3.47;;;2.25;;
39994;SDS011;25686;51.908;10.418;2023-09-19T02:54:27;4.95;;;2.58;;
39994;SDS011;25686;51.908;10.418;2023-09-19T02:56:28;8.05;;;2.80;;
39994;SDS011;25686;51.908;10.418;2023-09-19T02:58:30;4.03;;;2.58;;
39994;SDS011;25686;51.908;10.418;2023-09-19T03:00:35;3.10;;;2.25;;
39994;SDS011;25686;51.908;10.418;2023-09-19T03:02:36;3.03;;;2.30;;
39994;SDS011;25686;51.908;10.418;2023-09-19T03:04:39;4.70;;;2.40;;
39994;SDS011;25686;51.908;10.418;2023-09-19T03:06:40;3.25;;;2.40;;
39994;SDS011;25686;51.908;10.418;2023-09-19T03:08:41;6.65;;;2.55;;
39994;SDS011;25686;51.908;10.418;2023-09-19T03:10:42;4.97;;;2.50;;
39994;SDS011;25686;51.908;10.418;2023-09-19T03:12:43;7.22;;;2.50;;
39994;SDS011;25686;51.908;10.418;2023-09-19T03:14:44;5.57;;;2.50;;
39994;SDS011;25686;51.908;10.418;2023-09-19T03:16:45;5.70;;;2.50;;
39994;SDS011;25686;51.908;10.418;2023-09-19T03:18:46;6.30;;;2.90;;
39994;SDS011;25686;51.908;10.418;2023-09-19T03:20:55;5.28;;;2.72;;
39994;SDS011;25686;51.908;10.418;2023-09-19T03:22:56;5.05;;;2.50;;
39994;SDS011;25686;51.908;10.418;2023-09-19T03:24:57;6.60;;;2.95;;
39994;SDS011;25686;51.908;10.418;2023-09-19T03:26:58;4.32;;;3.10;;
39994;SDS011;25686;51.908;10.418;2023-09-19T03:28:59;7.47;;;2.90;;
39994;SDS011;25686;51.908;10.418;2023-09-19T03:31:04;5.10;;;3.00;;
39994;SDS011;25686;51.908;10.418;2023-09-19T03:33:05;5.25;;;3.00;;
39994;SDS011;25686;51.908;10.418;2023-09-19T03:35:06;6.85;;;2.97;;
39994;SDS011;25686;51.908;10.418;2023-09-19T03:37:08;7.22;;;3.10;;
39994;SDS011;25686;51.908;10.418;2023-09-19T03:39:09;5.10;;;2.75;;
39994;SDS011;25686;51.908;10.418;2023-09-19T03:41:10;3.88;;;2.95;;
39994;SDS011;25686;51.908;10.418;2023-09-19T03:43:14;7.22;;;3.30;;
39994;SDS011;25686;51.908;10.418;2023-09-19T03:45:15;10.05;;;3.70;;
39994;SDS011;25686;51.908;10.418;2023-09-19T03:47:17;6.63;;;3.03;;
39994;SDS011;25686;51.908;10.418;2023-09-19T03:49:19;7.75;;;3.05;;
39994;SDS011;25686;51.908;10.418;2023-09-19T03:51:20;6.30;;;3.00;;
39994;SDS011;25686;51.908;10.418;2023-09-19T03:53:21;9.90;;;3.05;;
39994;SDS011;25686;51.908;10.418;2023-09-19T03:55:22;7.07;;;2.90;;
39994;SDS011;25686;51.908;10.418;2023-09-19T03:57:23;5.03;;;2.72;;
39994;SDS011;25686;51.908;10.418;2023-09-19T03:59:24;5.28;;;2.72;;
39994;SDS011;25686;51.908;10.418;2023-09-19T04:01:26;7.80;;;2.80;;
39994;SDS011;25686;51.908;10.418;2023-09-19T04:03:27;3.70;;;2.40;;
39994;SDS011;25686;51.908;10.418;2023-09-19T04:05:35;5.05;;;2.72;;
39994;SDS011;25686;51.908;10.418;2023-09-19T04:07:36;6.45;;;2.72;;
39994;SDS011;25686;51.908;10.418;2023-09-19T04:09:37;7.55;;;2.88;;
39994;SDS011;25686;51.908;10.418;2023-09-19T04:11:38;3.50;;;2.20;;
39994;SDS011;25686;51.908;10.418;2023-09-19T04:13:39;7.15;;;2.92;;
39994;SDS011;25686;51.908;10.418;2023-09-19T04:15:40;5.70;;;2.58;;
39994;SDS011;25686;51.908;10.418;2023-09-19T04:17:41;9.77;;;2.55;;
39994;SDS011;25686;51.908;10.418;2023-09-19T04:19:41;6.72;;;2.78;;
39994;SDS011;25686;51.908;10.418;2023-09-19T04:21:42;5.80;;;2.35;;
39994;SDS011;25686;51.908;10.418;2023-09-19T04:23:44;4.60;;;2.35;;
39994;SDS011;25686;51.908;10.418;2023-09-19T04:25:45;8.63;;;2.60;;
39994;SDS011;25686;51.908;10.418;2023-09-19T04:27:46;8.13;;;2.22;;
39994;SDS011;25686;51.908;10.418;2023-09-19T04:29:47;7.15;;;2.65;;
39994;SDS011;25686;51.908;10.418;2023-09-19T04:31:53;6.20;;;2.50;;
39994;SDS011;25686;51.908;10.418;2023-09-19T04:33:54;8.52;;;2.30;;
39994;SDS011;25686;51.908;10.418;2023-09-19T04:35:55;4.95;;;2.38;;
39994;SDS011;25686;51.908;10.418;2023-09-19T04:37:56;7.63;;;2.28;;
39994;SDS011;25686;51.908;10.418;2023-09-19T04:39:57;9.75;;;2.60;;
39994;SDS011;25686;51.908;10.418;2023-09-19T04:41:57;5.65;;;2.60;;
39994;SDS011;25686;51.908;10.418;2023-09-19T04:43:59;5.18;;;2.67;;
39994;SDS011;25686;51.908;10.418;2023-09-19T04:46:00;10.25;;;2.92;;
39994;SDS011;25686;51.908;10.418;2023-09-19T04:48:01;8.93;;;3.08;;
39994;SDS011;25686;51.908;10.418;2023-09-19T04:50:02;7.47;;;2.67;;
39994;SDS011;25686;51.908;10.418;2023-09-19T04:52:04;7.53;;;2.70;;
39994;SDS011;25686;51.908;10.418;2023-09-19T04:54:05;7.75;;;3.17;;
39994;SDS011;25686;51.908;10.418;2023-09-19T04:56:06;6.95;;;2.95;;
39994;SDS011;25686;51.908;10.418;2023-09-19T04:58:07;10.93;;;2.97;;
39994;SDS011;25686;51.908;10.418;2023-09-19T05:00:09;9.15;;;2.65;;
39994;SDS011;25686;51.908;10.418;2023-09-19T05:02:12;6.80;;;3.20;;
39994;SDS011;25686;51.908;10.418;2023-09-19T05:04:13;6.70;;;2.75;;
39994;SDS011;25686;51.908;10.418;2023-09-19T05:06:14;6.07;;;2.55;;
39994;SDS011;25686;51.908;10.418;2023-09-19T05:08:15;9.60;;;3.08;;
39994;SDS011;25686;51.908;10.418;2023-09-19T05:10:16;6.53;;;2.70;;
39994;SDS011;25686;51.908;10.418;2023-09-19T05:12:20;9.90;;;3.00;;
39994;SDS011;25686;51.908;10.418;2023-09-19T05:14:21;7.95;;;2.90;;
39994;SDS011;25686;51.908;10.418;2023-09-19T05:16:22;8.10;;;2.63;;
39994;SDS011;25686;51.908;10.418;2023-09-19T05:18:23;6.32;;;3.00;;
39994;SDS011;25686;51.908;10.418;2023-09-19T05:20:25;5.43;;;2.72;;
39994;SDS011;25686;51.908;10.418;2023-09-19T05:22:29;9.90;;;3.13;;
39994;SDS011;25686;51.908;10.418;2023-09-19T05:24:31;4.93;;;3.10;;
39994;SDS011;25686;51.908;10.418;2023-09-19T05:26:32;8.13;;;2.80;;
39994;SDS011;25686;51.908;10.418;2023-09-19T05:28:33;5.97;;;2.88;;
39994;SDS011;25686;51.908;10.418;2023-09-19T05:30:35;7.82;;;2.83;;
39994;SDS011;25686;51.908;10.418;2023-09-19T05:32:36;7.70;;;3.03;;
39994;SDS011;25686;51.908;10.418;2023-09-19T05:34:37;7.30;;;2.55;;
39994;SDS011;25686;51.908;10.418;2023-09-19T05:36:38;9.80;;;3.30;;
39994;SDS011;25686;51.908;10.418;2023-09-19T05:38:39;7.70;;;2.90;;
39994;SDS011;25686;51.908;10.418;2023-09-19T05:40:42;9.52;;;2.85;;
39994;SDS011;25686;51.908;10.418;2023-09-19T05:42:43;8.30;;;2.67;;
39994;SDS011;25686;51.908;10.418;2023-09-19T05:44:44;9.25;;;2.90;;
39994;SDS011;25686;51.908;10.418;2023-09-19T05:46:45;12.20;;;4.18;;
39994;SDS011;25686;51.908;10.418;2023-09-19T05:48:48;9.63;;;3.10;;
39994;SDS011;25686;51.908;10.418;2023-09-19T05:50:49;7.50;;;2.50;;
39994;SDS011;25686;51.908;10.418;2023-09-19T05:52:51;9.35;;;2.95;;
39994;SDS011;25686;51.908;10.418;2023-09-19T05:54:52;8.27;;;2.67;;
39994;SDS011;25686;51.908;10.418;2023-09-19T05:56:53;7.60;;;3.15;;
39994;SDS011;25686;51.908;10.418;2023-09-19T05:58:54;7.18;;;2.67;;
39994;SDS011;25686;51.908;10.418;2023-09-19T06:00:55;6.18;;;2.40;;
39994;SDS011;25686;51.908;10.418;2023-09-19T06:02:58;8.18;;;2.63;;
39994;SDS011;25686;51.908;10.418;2023-09-19T06:04:59;7.97;;;2.88;;
39994;SDS011;25686;51.908;10.418;2023-09-19T06:07:00;7.95;;;2.92;;
39994;SDS011;25686;51.908;10.418;2023-09-19T06:09:02;8.63;;;2.40;;
39994;SDS011;25686;51.908;10.418;2023-09-19T06:11:05;6.55;;;2.50;;
39994;SDS011;25686;51.908;10.418;2023-09-19T06:13:07;11.52;;;3.10;;
39994;SDS011;25686;51.908;10.418;2023-09-19T06:15:11;6.57;;;2.35;;
39994;SDS011;25686;51.908;10.418;2023-09-19T06:17:15;8.57;;;2.60;;
39994;SDS011;25686;51.908;10.418;2023-09-19T06:19:17;9.55;;;3.03;;
39994;SDS011;25686;51.908;10.418;2023-09-19T06:21:18;8.57;;;2.85;;
39994;SDS011;25686;51.908;10.418;2023-09-19T06:23:19;7.50;;;2.42;;
39994;SDS011;25686;51.908;10.418;2023-09-19T06:25:21;7.10;;;2.42;;
39994;SDS011;25686;51.908;10.418;2023-09-19T06:27:22;9.68;;;2.35;;
39994;SDS011;25686;51.908;10.418;2023-09-19T06:29:23;10.20;;;2.53;;
39994;SDS011;25686;51.908;10.418;2023-09-19T06:31:25;6.95;;;2.20;;
39994;SDS011;25686;51.908;10.418;2023-09-19T06:33:29;6.90;;;2.60;;
39994;SDS011;25686;51.908;10.418;2023-09-19T06:35:32;10.05;;;2.90;;
39994;SDS011;25686;51.908;10.418;2023-09-19T06:37:33;7.28;;;2.28;;
39994;SDS011;25686;51.908;10.418;2023-09-19T06:39:38;9.20;;;2.42;;
39994;SDS011;25686;51.908;10.418;2023-09-19T06:41:39;25.38;;;3.78;;
39994;SDS011;25686;51.908;10.418;2023-09-19T06:43:41;8.98;;;2.50;;
39994;SDS011;25686;51.908;10.418;2023-09-19T06:45:42;12.40;;;2.90;;
39994;SDS011;25686;51.908;10.418;2023-09-19T06:47:43;10.32;;;2.20;;
39994;SDS011;25686;51.908;10.418;2023-09-19T06:49:45;9.88;;;2.20;;
39994;SDS011;25686;51.908;10.418;2023-09-19T06:51:46;9.13;;;2.33;;
39994;SDS011;25686;51.908;10.418;2023-09-19T06:53:48;6.88;;;2.00;;
39994;SDS011;25686;51.908;10.418;2023-09-19T06:55:50;9.65;;;2.53;;
39994;SDS011;25686;51.908;10.418;2023-09-19T06:57:51;9.48;;;2.40;;
39994;SDS011;25686;51.908;10.418;2023-09-19T06:59:54;7.53;;;2.10;;
39994;SDS011;25686;51.908;10.418;2023-09-19T07:01:55;9.02;;;2.53;;
39994;SDS011;25686;51.908;10.418;2023-09-19T07:03:59;7.05;;;2.03;;
39994;SDS011;25686;51.908;10.418;2023-09-19T07:06:00;7.00;;;2.10;;
39994;SDS011;25686;51.908;10.418;2023-09-19T07:08:05;10.18;;;2.30;;
39994;SDS011;25686;51.908;10.418;2023-09-19T07:10:06;7.55;;;2.03;;
39994;SDS011;25686;51.908;10.418;2023-09-19T07:12:11;7.50;;;1.80;;
39994;SDS011;25686;51.908;10.418;2023-09-19T07:14:12;7.93;;;2.20;;
39994;SDS011;25686;51.908;10.418;2023-09-19T07:16:13;6.38;;;1.98;;
39994;SDS011;25686;51.908;10.418;2023-09-19T07:18:27;7.63;;;1.92;;
39994;SDS011;25686;51.908;10.418;2023-09-19T07:20:28;8.13;;;2.17;;
39994;SDS011;25686;51.908;10.418;2023-09-19T07:22:31;7.10;;;1.70;;
39994;SDS011;25686;51.908;10.418;2023-09-19T07:24:32;6.30;;;1.92;;
39994;SDS011;25686;51.908;10.418;2023-09-19T07:26:33;7.60;;;2.15;;
39994;SDS011;25686;51.908;10.418;2023-09-19T07:28:34;6.55;;;2.20;;
39994;SDS011;25686;51.908;10.418;2023-09-19T07:30:36;9.50;;;2.10;;
39994;SDS011;25686;51.908;10.418;2023-09-19T07:32:39;8.55;;;2.25;;
39994;SDS011;25686;51.908;10.418;2023-09-19T07:34:40;12.98;;;2.72;;
39994;SDS011;25686;51.908;10.418;2023-09-19T07:36:41;7.75;;;2.10;;
39994;SDS011;25686;51.908;10.418;2023-09-19T07:38:43;7.95;;;2.22;;
39994;SDS011;25686;51.908;10.418;2023-09-19T07:40:44;7.85;;;2.20;;
39994;SDS011;25686;51.908;10.418;2023-09-19T07:42:45;7.10;;;1.92;;
39994;SDS011;25686;51.908;10.418;2023-09-19T07:44:46;10.38;;;2.25;;
39994;SDS011;25686;51.908;10.418;2023-09-19T07:46:50;8.57;;;1.88;;
39994;SDS011;25686;51.908;10.418;2023-09-19T07:48:52;11.00;;;2.30;;
39994;SDS011;25686;51.908;10.418;2023-09-19T07:50:53;7.40;;;2.15;;
39994;SDS011;25686;51.908;10.418;2023-09-19T07:52:54;8.32;;;2.08;;
39994;SDS011;25686;51.908;10.418;2023-09-19T07:54:56;9.23;;;2.13;;
39994;SDS011;25686;51.908;10.418;2023-09-19T07:57:02;7.95;;;2.20;;
39994;SDS011;25686;51.908;10.418;2023-09-19T07:59:03;7.72;;;2.17;;
39994;SDS011;25686;51.908;10.418;2023-09-19T08:01:04;8.25;;;1.85;;
39994;SDS011;25686;51.908;10.418;2023-09-19T08:03:06;8.98;;;2.00;;
39994;SDS011;25686;51.908;10.418;2023-09-19T08:05:09;8.65;;;2.10;;
39994;SDS011;25686;51.908;10.418;2023-09-19T08:07:10;8.65;;;2.25;;
39994;SDS011;25686;51.908;10.418;2023-09-19T08:09:11;8.95;;;1.80;;
39994;SDS011;25686;51.908;10.418;2023-09-19T08:11:16;7.38;;;2.08;;
39994;SDS011;25686;51.908;10.418;2023-09-19T08:13:21;9.05;;;2.13;;
39994;SDS011;25686;51.908;10.418;2023-09-19T08:15:22;6.65;;;2.25;;
39994;SDS011;25686;51.908;10.418;2023-09-19T08:17:23;9.25;;;2.17;;
39994;SDS011;25686;51.908;10.418;2023-09-19T08:19:24;8.75;;;2.20;;
39994;SDS011;25686;51.908;10.418;2023-09-19T08:21:28;7.03;;;1.83;;
39994;SDS011;25686;51.908;10.418;2023-09-19T08:23:29;7.38;;;1.75;;
39994;SDS011;25686;51.908;10.418;2023-09-19T08:25:32;7.30;;;1.80;;
39994;SDS011;25686;51.908;10.418;2023-09-19T08:27:33;7.03;;;2.10;;
39994;SDS011;25686;51.908;10.418;2023-09-19T08:29:36;14.45;;;2.47;;
39994;SDS011;25686;51.908;10.418;2023-09-19T08:31:37;7.22;;;2.00;;
39994;SDS011;25686;51.908;10.418;2023-09-19T08:33:38;7.20;;;2.10;;
39994;SDS011;25686;51.908;10.418;2023-09-19T08:35:40;8.43;;;2.08;;
39994;SDS011;25686;51.908;10.418;2023-09-19T08:37:43;7.18;;;2.00;;
39994;SDS011;25686;51.908;10.418;2023-09-19T08:39:46;6.22;;;1.80;;
39994;SDS011;25686;51.908;10.418;2023-09-19T08:41:46;7.88;;;1.85;;
39994;SDS011;25686;51.908;10.418;2023-09-19T08:43:47;7.20;;;1.92;;
39994;SDS011;25686;51.908;10.418;2023-09-19T08:45:49;5.65;;;1.77;;
39994;SDS011;25686;51.908;10.418;2023-09-19T08:52:37;11.35;;;2.20;;
39994;SDS011;25686;51.908;10.418;2023-09-19T08:54:40;12.85;;;2.70;;
39994;SDS011;25686;51.908;10.418;2023-09-19T08:56:43;5.45;;;2.00;;
39994;SDS011;25686;51.908;10.418;2023-09-19T08:58:53;9.18;;;2.08;;
39994;SDS011;25686;51.908;10.418;2023-09-19T09:00:57;8.55;;;2.25;;
39994;SDS011;25686;51.908;10.418;2023-09-19T09:02:58;8.05;;;2.17;;
39994;SDS011;25686;51.908;10.418;2023-09-19T09:05:00;6.00;;;2.10;;
39994;SDS011;25686;51.908;10.418;2023-09-19T09:07:02;6.47;;;1.90;;
39994;SDS011;25686;51.908;10.418;2023-09-19T09:09:04;6.43;;;1.95;;
39994;SDS011;25686;51.908;10.418;2023-09-19T09:11:05;7.70;;;1.90;;
39994;SDS011;25686;51.908;10.418;2023-09-19T09:13:07;8.00;;;1.83;;
39994;SDS011;25686;51.908;10.418;2023-09-19T09:15:10;6.60;;;2.10;;
39994;SDS011;25686;51.908;10.418;2023-09-19T09:17:16;11.35;;;2.50;;
39994;SDS011;25686;51.908;10.418;2023-09-19T09:19:20;7.38;;;2.20;;
39994;SDS011;25686;51.908;10.418;2023-09-19T09:21:25;5.28;;;1.75;;
39994;SDS011;25686;51.908;10.418;2023-09-19T09:23:26;6.22;;;1.73;;
39994;SDS011;25686;51.908;10.418;2023-09-19T09:28:00;5.45;;;1.98;;
39994;SDS011;25686;51.908;10.418;2023-09-19T09:30:01;6.45;;;2.10;;
39994;SDS011;25686;51.908;10.418;2023-09-19T09:32:15;8.05;;;1.90;;
39994;SDS011;25686;51.908;10.418;2023-09-19T09:34:18;7.70;;;2.10;;
39994;SDS011;25686;51.908;10.418;2023-09-19T09:36:34;5.15;;;1.90;;
39994;SDS011;25686;51.908;10.418;2023-09-19T09:38:43;5.07;;;1.80;;
39994;SDS011;25686;51.908;10.418;2023-09-19T09:40:46;7.63;;;2.15;;
39994;SDS011;25686;51.908;10.418;2023-09-19T09:42:47;6.55;;;1.85;;
39994;SDS011;25686;51.908;10.418;2023-09-19T09:45:07;8.32;;;2.00;;
39994;SDS011;25686;51.908;10.418;2023-09-19T09:47:12;8.38;;;2.38;;
39994;SDS011;25686;51.908;10.418;2023-09-19T09:49:30;6.57;;;2.05;;
39994;SDS011;25686;51.908;10.418;2023-09-19T09:51:34;3.78;;;2.17;;
39994;SDS011;25686;51.908;10.418;2023-09-19T09:53:34;7.25;;;2.40;;
39994;SDS011;25686;51.908;10.418;2023-09-19T09:55:56;8.23;;;2.17;;
39994;SDS011;25686;51.908;10.418;2023-09-19T09:58:16;7.10;;;2.47;;
39994;SDS011;25686;51.908;10.418;2023-09-19T10:00:24;6.43;;;2.28;;
39994;SDS011;25686;51.908;10.418;2023-09-19T10:02:35;5.82;;;1.70;;
39994;SDS011;25686;51.908;10.418;2023-09-19T10:04:42;8.15;;;2.28;;
39994;SDS011;25686;51.908;10.418;2023-09-19T10:06:51;5.07;;;1.92;;
39994;SDS011;25686;51.908;10.418;2023-09-19T10:09:00;5.80;;;2.00;;
39994;SDS011;25686;51.908;10.418;2023-09-19T10:11:17;5.95;;;1.83;;
39994;SDS011;25686;51.908;10.418;2023-09-19T10:13:20;5.05;;;2.20;;
39994;SDS011;25686;51.908;10.418;2023-09-19T10:15:25;6.10;;;1.92;;
39994;SDS011;25686;51.908;10.418;2023-09-19T10:17:27;8.15;;;2.30;;
39994;SDS011;25686;51.908;10.418;2023-09-19T10:19:33;8.55;;;2.50;;
39994;SDS011;25686;51.908;10.418;2023-09-19T10:21:37;7.40;;;2.10;;
39994;SDS011;25686;51.908;10.418;2023-09-19T10:23:39;7.00;;;2.42;;
39994;SDS011;25686;51.908;10.418;2023-09-19T10:25:43;7.13;;;2.20;;
39994;SDS011;25686;51.908;10.418;2023-09-19T10:27:47;8.88;;;2.40;;
39994;SDS011;25686;51.908;10.418;2023-09-19T10:29:50;8.65;;;2.65;;
39994;SDS011;25686;51.908;10.418;2023-09-19T10:31:54;6.78;;;2.22;;
39994;SDS011;25686;51.908;10.418;2023-09-19T10:33:55;9.23;;;2.30;;
39994;SDS011;25686;51.908;10.418;2023-09-19T10:35:58;9.02;;;2.25;;
39994;SDS011;25686;51.908;10.418;2023-09-19T10:38:00;9.07;;;2.08;;
39994;SDS011;25686;51.908;10.418;2023-09-19T10:40:02;10.77;;;2.28;;
39994;SDS011;25686;51.908;10.418;2023-09-19T10:42:04;5.35;;;1.92;;
39994;SDS011;25686;51.908;10.418;2023-09-19T10:44:06;8.90;;;2.33;;
39994;SDS011;25686;51.908;10.418;2023-09-19T10:46:09;10.75;;;2.10;;
39994;SDS011;25686;51.908;10.418;2023-09-19T10:48:11;7.40;;;2.28;;
39994;SDS011;25686;51.908;10.418;2023-09-19T10:50:21;7.63;;;2.20;;
39994;SDS011;25686;51.908;10.418;2023-09-19T10:52:24;10.98;;;2.10;;
39994;SDS011;25686;51.908;10.418;2023-09-19T10:54:27;10.18;;;2.33;;
39994;SDS011;25686;51.908;10.418;2023-09-19T10:58:32;9.82;;;2.67;;
39994;SDS011;25686;51.908;10.418;2023-09-19T11:00:49;7.47;;;2.33;;
39994;SDS011;25686;51.908;10.418;2023-09-19T11:05:12;8.77;;;2.50;;
39994;SDS011;25686;51.908;10.418;2023-09-19T11:07:13;10.85;;;2.30;;
39994;SDS011;25686;51.908;10.418;2023-09-19T11:09:15;5.78;;;1.95;;
39994;SDS011;25686;51.908;10.418;2023-09-19T11:13:41;7.20;;;2.13;;
39994;SDS011;25686;51.908;10.418;2023-09-19T11:17:57;7.70;;;2.00;;
39994;SDS011;25686;51.908;10.418;2023-09-19T11:22:12;9.80;;;2.53;;
39994;SDS011;25686;51.908;10.418;2023-09-19T11:26:40;10.40;;;2.33;;
39994;SDS011;25686;51.908;10.418;2023-09-19T11:28:48;10.52;;;2.40;;
39994;SDS011;25686;51.908;10.418;2023-09-19T11:33:49;8.48;;;1.90;;
39994;SDS011;25686;51.908;10.418;2023-09-19T11:36:14;10.10;;;2.50;;
39994;SDS011;25686;51.908;10.418;2023-09-19T11:38:15;8.00;;;2.53;;
39994;SDS011;25686;51.908;10.418;2023-09-19T11:40:16;7.40;;;2.30;;
39994;SDS011;25686;51.908;10.418;2023-09-19T11:44:37;8.25;;;2.30;;
39994;SDS011;25686;51.908;10.418;2023-09-19T11:46:54;8.80;;;2.28;;
39994;SDS011;25686;51.908;10.418;2023-09-19T11:49:05;8.95;;;2.45;;
39994;SDS011;25686;51.908;10.418;2023-09-19T11:51:26;8.60;;;2.40;;
39994;SDS011;25686;51.908;10.418;2023-09-19T11:53:30;8.65;;;1.90;;
39994;SDS011;25686;51.908;10.418;2023-09-19T11:55:36;7.65;;;2.50;;
39994;SDS011;25686;51.908;10.418;2023-09-19T11:57:38;7.35;;;1.98;;
39994;SDS011;25686;51.908;10.418;2023-09-19T11:59:42;9.80;;;2.38;;
39994;SDS011;25686;51.908;10.418;2023-09-19T12:01:43;10.15;;;2.20;;
39994;SDS011;25686;51.908;10.418;2023-09-19T12:03:54;9.60;;;2.38;;
39994;SDS011;25686;51.908;10.418;2023-09-19T12:05:58;8.68;;;2.10;;
39994;SDS011;25686;51.908;10.418;2023-09-19T12:07:59;6.78;;;2.17;;
39994;SDS011;25686;51.908;10.418;2023-09-19T12:10:03;8.23;;;1.90;;
39994;SDS011;25686;51.908;10.418;2023-09-19T12:12:06;7.97;;;2.42;;
39994;SDS011;25686;51.908;10.418;2023-09-19T12:14:07;10.55;;;2.45;;
39994;SDS011;25686;51.908;10.418;2023-09-19T12:16:12;7.30;;;1.80;;
39994;SDS011;25686;51.908;10.418;2023-09-19T12:18:27;7.25;;;2.10;;
39994;SDS011;25686;51.908;10.418;2023-09-19T12:20:45;8.13;;;2.40;;
39994;SDS011;25686;51.908;10.418;2023-09-19T12:22:50;8.82;;;2.17;;
39994;SDS011;25686;51.908;10.418;2023-09-19T12:24:51;10.82;;;2.40;;
39994;SDS011;25686;51.908;10.418;2023-09-19T12:26:54;12.60;;;2.70;;
39994;SDS011;25686;51.908;10.418;2023-09-19T12:28:57;9.30;;;2.50;;
39994;SDS011;25686;51.908;10.418;2023-09-19T12:31:05;8.50;;;2.13;;
39994;SDS011;25686;51.908;10.418;2023-09-19T12:33:19;8.20;;;2.38;;
39994;SDS011;25686;51.908;10.418;2023-09-19T12:35:28;8.95;;;2.08;;
39994;SDS011;25686;51.908;10.418;2023-09-19T12:37:30;7.88;;;2.20;;
39994;SDS011;25686;51.908;10.418;2023-09-19T12:39:31;6.65;;;2.28;;
39994;SDS011;25686;51.908;10.418;2023-09-19T12:41:32;10.60;;;2.28;;
39994;SDS011;25686;51.908;10.418;2023-09-19T12:43:33;10.13;;;2.50;;
39994;SDS011;25686;51.908;10.418;2023-09-19T12:45:36;9.07;;;2.10;;